Time;durP1;ratioP1;P1;durP2;ratioP2;P2;SDS_P1;SDS_P2;PMS_P1;PMS_P2;Temp;Humidity;BMP_temperature;BMP_pressure;BME280_temperature;BME280_humidity;BME280_pressure;Samples;Min_cycle;Max_cycle;Signal;HPM_P1;HPM_P2
2021/11/04 00:02:19;;;;;;;3.50;3.13;;;;;;;;;;5039450;28;20040;-61
2021/11/04 00:04:44;;;;;;;3.35;3.03;;;;;;;;;;5038900;28;20125;-61
2021/11/04 00:07:12;;;;;;;3.17;2.65;;;;;;;;;;5038981;28;20048;-62
2021/11/04 00:09:39;;;;;;;3.30;2.60;;;;;;;;;;5025953;28;20362;-61
2021/11/04 00:12:05;;;;;;;3.85;3.45;;;;;;;;;;5037965;28;20025;-61
2021/11/04 00:14:30;;;;;;;3.40;3.00;;;;;;;;;;5035163;28;20029;-62
2021/11/04 00:16:56;;;;;;;3.40;2.72;;;;;;;;;;5038886;28;20029;-62
2021/11/04 00:19:21;;;;;;;3.58;2.78;;;;;;;;;;5038186;28;20034;-62
2021/11/04 00:21:47;;;;;;;5.22;3.30;;;;;;;;;;5038534;28;20505;-61
2021/11/04 00:24:12;;;;;;;4.30;3.35;;;;;;;;;;5040410;28;20032;-61
2021/11/04 00:26:38;;;;;;;3.47;3.05;;;;;;;;;;5040029;28;20126;-62
2021/11/04 00:29:03;;;;;;;3.28;2.72;;;;;;;;;;5040075;28;20588;-61
2021/11/04 00:31:28;;;;;;;4.43;3.22;;;;;;;;;;5037209;28;20112;-61
2021/11/04 00:33:56;;;;;;;4.70;3.80;;;;;;;;;;5038158;28;20122;-61
2021/11/04 00:36:22;;;;;;;3.60;3.03;;;;;;;;;;5039511;28;20458;-61
2021/11/04 00:38:48;;;;;;;3.85;2.70;;;;;;;;;;5040629;28;20450;-61
2021/11/04 00:41:15;;;;;;;3.97;3.33;;;;;;;;;;5036025;28;20038;-62
2021/11/04 00:43:41;;;;;;;4.15;3.75;;;;;;;;;;5037803;28;20057;-61
2021/11/04 00:46:06;;;;;;;5.78;4.05;;;;;;;;;;5037031;28;20405;-61
2021/11/04 00:48:32;;;;;;;4.90;3.92;;;;;;;;;;5038590;28;20040;-62
2021/11/04 00:50:57;;;;;;;4.35;3.22;;;;;;;;;;5035724;28;20041;-61
2021/11/04 00:53:23;;;;;;;5.13;3.47;;;;;;;;;;5039894;28;20194;-61
2021/11/04 00:55:49;;;;;;;7.43;3.90;;;;;;;;;;5038644;28;20109;-62
2021/11/04 00:58:15;;;;;;;6.57;4.43;;;;;;;;;;5036543;28;20087;-61
2021/11/04 01:00:41;;;;;;;7.05;4.07;;;;;;;;;;5035740;28;20033;-62
2021/11/04 01:03:06;;;;;;;3.85;3.45;;;;;;;;;;5038841;28;20500;-62
2021/11/04 01:05:32;;;;;;;4.88;4.25;;;;;;;;;;5037473;28;20021;-61
2021/11/04 01:07:59;;;;;;;5.35;3.58;;;;;;;;;;5038587;28;20029;-62
2021/11/04 01:10:24;;;;;;;4.45;3.45;;;;;;;;;;5036988;28;20033;-62
2021/11/04 01:12:51;;;;;;;3.67;3.17;;;;;;;;;;5034034;28;20052;-62
2021/11/04 01:15:17;;;;;;;3.47;2.88;;;;;;;;;;5036408;28;20037;-62
2021/11/04 01:17:42;;;;;;;4.25;3.22;;;;;;;;;;5036417;28;20032;-62
2021/11/04 01:20:08;;;;;;;4.00;3.58;;;;;;;;;;5034769;28;20498;-62
2021/11/04 01:22:33;;;;;;;4.30;3.03;;;;;;;;;;5037291;28;20110;-62
2021/11/04 01:24:59;;;;;;;5.88;3.80;;;;;;;;;;5034977;28;20056;-62
2021/11/04 01:27:24;;;;;;;4.65;3.70;;;;;;;;;;5037965;28;20509;-62
2021/11/04 01:29:50;;;;;;;5.20;3.92;;;;;;;;;;5034857;28;20021;-62
2021/11/04 01:32:15;;;;;;;4.35;3.33;;;;;;;;;;5035525;28;20056;-62
2021/11/04 01:34:41;;;;;;;7.55;4.43;;;;;;;;;;5037254;28;20382;-61
2021/11/04 01:37:07;;;;;;;7.30;3.63;;;;;;;;;;5037723;28;20083;-62
2021/11/04 01:39:32;;;;;;;4.03;3.42;;;;;;;;;;5037631;28;20033;-62
2021/11/04 01:41:58;;;;;;;5.78;4.45;;;;;;;;;;5034558;28;20065;-62
2021/11/04 01:44:23;;;;;;;5.10;3.90;;;;;;;;;;5037244;28;20029;-62
2021/11/04 01:46:50;;;;;;;14.23;4.00;;;;;;;;;;5036505;28;20033;-62
2021/11/04 01:49:16;;;;;;;5.30;3.65;;;;;;;;;;5033600;28;20044;-62
2021/11/04 01:51:43;;;;;;;4.28;3.35;;;;;;;;;;5037324;28;20029;-62
2021/11/04 01:54:09;;;;;;;4.47;3.60;;;;;;;;;;5037666;28;20021;-62
2021/11/04 01:56:39;;;;;;;3.25;2.95;;;;;;;;;;5038261;28;20043;-62
2021/11/04 01:59:05;;;;;;;5.05;4.35;;;;;;;;;;5035914;28;20735;-62
2021/11/04 02:01:30;;;;;;;4.07;3.50;;;;;;;;;;5035799;28;20123;-62
2021/11/04 02:04:04;;;;;;;5.22;4.43;;;;;;;;;;5032019;28;20018;-61
2021/11/04 02:06:42;;;;;;;6.85;4.30;;;;;;;;;;5036688;28;20508;-60
2021/11/04 02:09:25;;;;;;;4.78;4.03;;;;;;;;;;5036884;28;20359;-61
2021/11/04 02:12:07;;;;;;;5.22;4.20;;;;;;;;;;5036767;28;20121;-61
2021/11/04 02:14:38;;;;;;;4.97;4.07;;;;;;;;;;5033839;28;20029;-61
2021/11/04 02:17:06;;;;;;;5.82;4.43;;;;;;;;;;5032925;28;20045;-61
2021/11/04 02:19:49;;;;;;;6.05;5.07;;;;;;;;;;5037772;28;20048;-61
2021/11/04 02:22:26;;;;;;;6.10;4.65;;;;;;;;;;5036600;28;20116;-61
2021/11/04 02:25:07;;;;;;;4.65;3.75;;;;;;;;;;5037532;28;20096;-61
2021/11/04 02:27:33;;;;;;;4.22;3.45;;;;;;;;;;5035411;28;20049;-61
2021/11/04 02:29:58;;;;;;;5.05;4.10;;;;;;;;;;5037674;28;20033;-61
2021/11/04 02:32:24;;;;;;;10.32;5.18;;;;;;;;;;5035390;28;20376;-61
2021/11/04 02:34:51;;;;;;;6.57;5.03;;;;;;;;;;5036813;28;20370;-61
2021/11/04 02:37:17;;;;;;;5.93;4.30;;;;;;;;;;5034244;28;20656;-61
2021/11/04 02:39:43;;;;;;;7.47;4.47;;;;;;;;;;5037435;28;20068;-61
2021/11/04 02:42:09;;;;;;;5.28;4.28;;;;;;;;;;5033625;28;20029;-61
2021/11/04 02:44:36;;;;;;;5.72;4.60;;;;;;;;;;5034766;28;20028;-61
2021/11/04 02:47:02;;;;;;;6.00;4.32;;;;;;;;;;5036198;28;20103;-61
2021/11/04 02:49:30;;;;;;;4.85;4.10;;;;;;;;;;5034126;28;20133;-61
2021/11/04 02:51:56;;;;;;;3.85;3.40;;;;;;;;;;5034145;28;20090;-61
2021/11/04 02:54:23;;;;;;;6.05;4.78;;;;;;;;;;5036087;28;20080;-61
2021/11/04 02:56:51;;;;;;;6.72;4.50;;;;;;;;;;5035239;28;20029;-61
2021/11/04 02:59:19;;;;;;;5.57;4.85;;;;;;;;;;5034717;28;20060;-61
2021/11/04 03:01:47;;;;;;;6.80;5.15;;;;;;;;;;5035787;28;20021;-61
2021/11/04 03:04:16;;;;;;;6.22;5.20;;;;;;;;;;5034023;28;20044;-61
2021/11/04 03:06:42;;;;;;;5.47;4.55;;;;;;;;;;5037514;28;20052;-60
2021/11/04 03:09:07;;;;;;;6.38;4.93;;;;;;;;;;5034084;28;20053;-61
2021/11/04 03:11:33;;;;;;;6.15;4.15;;;;;;;;;;5034065;28;20059;-61
2021/11/04 03:13:59;;;;;;;5.63;4.70;;;;;;;;;;5035001;28;20065;-61
2021/11/04 03:16:25;;;;;;;6.15;4.63;;;;;;;;;;5035233;28;20049;-61
2021/11/04 03:18:52;;;;;;;5.65;4.30;;;;;;;;;;5031050;28;20053;-61
2021/11/04 03:21:19;;;;;;;6.70;5.53;;;;;;;;;;5035114;28;20490;-61
2021/11/04 03:23:45;;;;;;;7.03;4.38;;;;;;;;;;5032568;28;20516;-61
2021/11/04 03:26:12;;;;;;;6.30;5.60;;;;;;;;;;5036149;28;20114;-61
2021/11/04 03:28:38;;;;;;;5.28;4.13;;;;;;;;;;5034600;28;20112;-61
2021/11/04 03:31:05;;;;;;;5.63;3.65;;;;;;;;;;5037182;28;20112;-61
2021/11/04 03:33:31;;;;;;;5.07;4.45;;;;;;;;;;5032145;28;20414;-60
2021/11/04 03:35:58;;;;;;;5.80;4.40;;;;;;;;;;5036892;28;20056;-61
2021/11/04 03:38:25;;;;;;;4.55;3.60;;;;;;;;;;5036457;28;20041;-60
2021/11/04 03:40:51;;;;;;;6.35;5.35;;;;;;;;;;5033470;28;20415;-61
2021/11/04 03:43:17;;;;;;;5.40;4.57;;;;;;;;;;5035224;28;20132;-61
2021/11/04 03:45:44;;;;;;;6.00;3.78;;;;;;;;;;5035741;28;20112;-61
2021/11/04 03:48:10;;;;;;;4.80;3.78;;;;;;;;;;5037705;28;20489;-60
2021/11/04 03:50:37;;;;;;;5.72;4.38;;;;;;;;;;5034087;28;20037;-60
2021/11/04 03:53:03;;;;;;;10.43;4.90;;;;;;;;;;5032512;28;20061;-60
2021/11/04 03:55:31;;;;;;;6.45;4.82;;;;;;;;;;5035995;28;20025;-61
2021/11/04 03:57:57;;;;;;;8.27;4.38;;;;;;;;;;5033573;28;20055;-61
2021/11/04 04:00:23;;;;;;;4.40;4.00;;;;;;;;;;5034409;28;20179;-62
2021/11/04 04:02:49;;;;;;;6.70;5.35;;;;;;;;;;5035390;28;20022;-61
2021/11/04 04:05:15;;;;;;;4.78;3.92;;;;;;;;;;5035964;28;20040;-61
2021/11/04 04:07:42;;;;;;;6.57;5.35;;;;;;;;;;5035582;28;20033;-61
2021/11/04 04:10:08;;;;;;;4.95;4.47;;;;;;;;;;5035767;28;20041;-61
2021/11/04 04:12:33;;;;;;;6.68;5.88;;;;;;;;;;5037389;28;20037;-61
2021/11/04 04:14:59;;;;;;;6.78;4.70;;;;;;;;;;5037601;28;20026;-63
2021/11/04 04:17:24;;;;;;;10.00;4.80;;;;;;;;;;5037297;28;20061;-61
2021/11/04 04:19:51;;;;;;;6.00;5.32;;;;;;;;;;5041004;28;20391;-61
2021/11/04 04:22:17;;;;;;;8.10;5.15;;;;;;;;;;5037489;28;20363;-61
2021/11/04 04:24:43;;;;;;;7.60;5.82;;;;;;;;;;5033207;28;20037;-61
2021/11/04 04:27:08;;;;;;;12.80;5.95;;;;;;;;;;5039031;28;20029;-61
2021/11/04 04:29:34;;;;;;;7.28;4.35;;;;;;;;;;5039717;28;20496;-60
2021/11/04 04:31:59;;;;;;;5.75;4.70;;;;;;;;;;5039939;28;20362;-60
2021/11/04 04:34:26;;;;;;;4.47;4.05;;;;;;;;;;5037461;28;20037;-60
2021/11/04 04:36:52;;;;;;;4.75;4.25;;;;;;;;;;5038949;28;20035;-61
2021/11/04 04:39:17;;;;;;;5.15;4.38;;;;;;;;;;5038985;28;20038;-60
2021/11/04 04:41:43;;;;;;;7.55;5.50;;;;;;;;;;5036206;28;20041;-60
2021/11/04 04:44:08;;;;;;;6.20;5.15;;;;;;;;;;5039759;28;20174;-60
2021/11/04 04:46:34;;;;;;;5.43;3.97;;;;;;;;;;5040675;28;20426;-60
2021/11/04 04:48:59;;;;;;;4.80;3.72;;;;;;;;;;5038257;28;20628;-60
2021/11/04 04:51:25;;;;;;;4.70;4.20;;;;;;;;;;5039444;28;20124;-60
2021/11/04 04:53:50;;;;;;;4.68;3.50;;;;;;;;;;5034740;28;20533;-60
2021/11/04 04:56:15;;;;;;;4.53;3.97;;;;;;;;;;5039326;28;20135;-60
2021/11/04 04:58:41;;;;;;;4.82;3.53;;;;;;;;;;5036872;28;20355;-60
2021/11/04 05:01:07;;;;;;;6.30;4.30;;;;;;;;;;5040481;28;20068;-60
2021/11/04 05:03:32;;;;;;;4.13;3.53;;;;;;;;;;5040253;28;20225;-60
2021/11/04 05:05:57;;;;;;;4.00;3.20;;;;;;;;;;5039356;28;20017;-60
2021/11/04 05:08:23;;;;;;;3.97;3.58;;;;;;;;;;5039565;28;20051;-59
2021/11/04 05:10:48;;;;;;;4.80;4.30;;;;;;;;;;5042058;28;20545;-61
2021/11/04 05:13:14;;;;;;;4.57;3.72;;;;;;;;;;5038764;28;20032;-59
2021/11/04 05:15:39;;;;;;;4.57;3.95;;;;;;;;;;5040134;28;20483;-60
2021/11/04 05:18:07;;;;;;;3.67;3.10;;;;;;;;;;5039143;28;20032;-60
2021/11/04 05:20:34;;;;;;;3.75;2.88;;;;;;;;;;5037486;28;20033;-60
2021/11/04 05:22:59;;;;;;;4.00;3.17;;;;;;;;;;5040102;28;20029;-61
2021/11/04 05:25:25;;;;;;;3.00;2.53;;;;;;;;;;5038494;28;20418;-61
2021/11/04 05:27:50;;;;;;;4.30;3.53;;;;;;;;;;5036325;28;20079;-62
2021/11/04 05:30:17;;;;;;;3.05;2.58;;;;;;;;;;5038407;28;20572;-62
2021/11/04 05:32:43;;;;;;;4.03;3.17;;;;;;;;;;5030141;28;20471;-62
2021/11/04 05:35:09;;;;;;;6.30;3.80;;;;;;;;;;5035860;28;20128;-62
2021/11/04 05:37:34;;;;;;;3.92;3.33;;;;;;;;;;5032471;28;20104;-62
2021/11/04 05:40:00;;;;;;;3.90;2.97;;;;;;;;;;5035895;28;20038;-62
2021/11/04 05:42:25;;;;;;;4.05;3.10;;;;;;;;;;5032968;28;20198;-63
2021/11/04 05:44:51;;;;;;;4.45;3.70;;;;;;;;;;5036546;28;20028;-62
2021/11/04 05:47:17;;;;;;;6.60;4.05;;;;;;;;;;5033560;28;20037;-61
2021/11/04 05:49:42;;;;;;;3.95;3.08;;;;;;;;;;5027731;28;20078;-62
2021/11/04 05:52:08;;;;;;;6.20;2.83;;;;;;;;;;5032409;28;20117;-63
2021/11/04 05:54:34;;;;;;;3.42;2.45;;;;;;;;;;5035953;28;20033;-61
2021/11/04 05:57:00;;;;;;;4.03;3.20;;;;;;;;;;5029375;28;20041;-62
2021/11/04 05:59:26;;;;;;;6.50;3.83;;;;;;;;;;5031920;28;20029;-63
2021/11/04 06:01:53;;;;;;;5.00;3.15;;;;;;;;;;5036420;28;20045;-64
2021/11/04 06:04:19;;;;;;;3.42;2.83;;;;;;;;;;5033080;28;20132;-62
2021/11/04 06:06:44;;;;;;;5.35;3.50;;;;;;;;;;5031761;28;20021;-63
2021/11/04 06:09:10;;;;;;;3.58;2.83;;;;;;;;;;5034381;28;20048;-62
2021/11/04 06:11:36;;;;;;;3.20;2.22;;;;;;;;;;5031488;28;20474;-63
2021/11/04 06:14:02;;;;;;;3.40;2.85;;;;;;;;;;5033313;28;20037;-63
2021/11/04 06:16:27;;;;;;;2.85;2.35;;;;;;;;;;5033988;28;20049;-63
2021/11/04 06:18:53;;;;;;;3.60;2.80;;;;;;;;;;5034676;28;20026;-64
2021/11/04 06:21:18;;;;;;;3.85;3.20;;;;;;;;;;5033061;28;20339;-59
2021/11/04 06:23:44;;;;;;;3.38;2.85;;;;;;;;;;5034659;28;20085;-60
2021/11/04 06:26:09;;;;;;;3.22;2.20;;;;;;;;;;5035085;28;20435;-61
2021/11/04 06:28:34;;;;;;;2.75;2.15;;;;;;;;;;5034616;28;20103;-61
2021/11/04 06:31:00;;;;;;;7.43;3.00;;;;;;;;;;5036337;28;20037;-61
2021/11/04 06:33:25;;;;;;;2.97;2.20;;;;;;;;;;5034869;28;20033;-60
2021/11/04 06:35:54;;;;;;;3.03;2.28;;;;;;;;;;5033115;28;20037;-62
2021/11/04 06:38:20;;;;;;;3.15;2.63;;;;;;;;;;5035853;28;20114;-60
2021/11/04 06:40:46;;;;;;;3.25;2.70;;;;;;;;;;5037068;28;20039;-61
2021/11/04 06:43:12;;;;;;;2.65;2.15;;;;;;;;;;5035319;28;20116;-62
2021/11/04 06:45:40;;;;;;;3.03;2.53;;;;;;;;;;5034169;28;20034;-61
2021/11/04 06:48:12;;;;;;;3.90;3.05;;;;;;;;;;5037964;28;20063;-61
2021/11/04 06:50:40;;;;;;;3.72;2.78;;;;;;;;;;5028465;28;20481;-63
2021/11/04 06:53:11;;;;;;;3.10;2.78;;;;;;;;;;5033195;28;20063;-62
2021/11/04 06:55:43;;;;;;;3.25;2.50;;;;;;;;;;5033208;28;20025;-61
2021/11/04 06:58:14;;;;;;;2.72;2.15;;;;;;;;;;5031970;28;20048;-63
2021/11/04 07:00:45;;;;;;;3.58;2.40;;;;;;;;;;5036141;28;20033;-62
2021/11/04 07:03:24;;;;;;;3.67;2.60;;;;;;;;;;5033048;28;20104;-61
2021/11/04 07:05:56;;;;;;;3.00;2.38;;;;;;;;;;5030790;28;20029;-62
2021/11/04 07:08:26;;;;;;;3.33;2.63;;;;;;;;;;5034074;28;20043;-62
2021/11/04 07:11:01;;;;;;;3.70;2.60;;;;;;;;;;5036089;28;20116;-61
2021/11/04 07:13:30;;;;;;;3.65;2.83;;;;;;;;;;5033345;28;20037;-62
2021/11/04 07:15:57;;;;;;;4.88;3.53;;;;;;;;;;5036703;28;20029;-62
2021/11/04 07:18:23;;;;;;;4.10;2.63;;;;;;;;;;5027607;28;20056;-61
2021/11/04 07:20:55;;;;;;;3.90;3.22;;;;;;;;;;5035896;28;20029;-62
2021/11/04 07:23:30;;;;;;;3.70;2.63;;;;;;;;;;5034515;28;20170;-62
2021/11/04 07:26:01;;;;;;;4.82;3.90;;;;;;;;;;5032966;28;20061;-62
2021/11/04 07:28:28;;;;;;;3.87;3.10;;;;;;;;;;5033007;28;20044;-62
2021/11/04 07:30:55;;;;;;;5.20;4.55;;;;;;;;;;5033683;28;20474;-62
2021/11/04 07:33:23;;;;;;;6.13;4.22;;;;;;;;;;5031704;28;20037;-62
2021/11/04 07:35:49;;;;;;;4.57;3.63;;;;;;;;;;5033550;28;20021;-61
2021/11/04 07:38:14;;;;;;;4.45;3.70;;;;;;;;;;5032785;28;20024;-61
2021/11/04 07:40:40;;;;;;;6.53;4.13;;;;;;;;;;5030280;28;20030;-61
2021/11/04 07:43:06;;;;;;;5.40;3.97;;;;;;;;;;5033938;28;20048;-61
2021/11/04 07:45:32;;;;;;;6.43;4.40;;;;;;;;;;5036268;28;20136;-61
2021/11/04 07:47:59;;;;;;;5.72;4.43;;;;;;;;;;5035293;28;20438;-61
2021/11/04 07:50:27;;;;;;;7.90;4.72;;;;;;;;;;5037411;28;20032;-61
2021/11/04 07:52:53;;;;;;;5.07;4.28;;;;;;;;;;5035713;28;20108;-59
2021/11/04 07:55:18;;;;;;;7.40;5.22;;;;;;;;;;5033263;28;20120;-60
2021/11/04 07:57:44;;;;;;;11.43;5.60;;;;;;;;;;5026784;28;20041;-60
2021/11/04 08:00:14;;;;;;;13.65;6.28;;;;;;;;;;5032084;28;20478;-60
2021/11/04 08:02:43;;;;;;;6.93;5.15;;;;;;;;;;5036882;28;20037;-60
2021/11/04 08:05:10;;;;;;;7.10;5.68;;;;;;;;;;5033139;28;20025;-60
2021/11/04 08:07:37;;;;;;;10.40;5.63;;;;;;;;;;5038482;28;20025;-60
2021/11/04 08:10:10;;;;;;;4.97;4.03;;;;;;;;;;5036925;28;20033;-60
2021/11/04 08:12:35;;;;;;;10.55;6.22;;;;;;;;;;5033154;28;20126;-60
2021/11/04 08:15:02;;;;;;;6.75;5.28;;;;;;;;;;5035798;28;20116;-60
2021/11/04 08:17:28;;;;;;;10.70;5.97;;;;;;;;;;5039423;28;20122;-60
2021/11/04 08:19:53;;;;;;;7.70;4.90;;;;;;;;;;5035733;28;20067;-60
2021/11/04 08:22:19;;;;;;;6.65;4.82;;;;;;;;;;5033533;28;20044;-60
2021/11/04 08:24:44;;;;;;;8.15;5.82;;;;;;;;;;5037587;28;20094;-60
2021/11/04 08:27:10;;;;;;;7.80;5.28;;;;;;;;;;5035983;28;20047;-60
2021/11/04 08:29:36;;;;;;;12.60;7.20;;;;;;;;;;5036572;28;20044;-60
2021/11/04 08:32:01;;;;;;;5.85;4.65;;;;;;;;;;5037798;28;20037;-60
2021/11/04 08:34:27;;;;;;;4.90;3.90;;;;;;;;;;5037562;28;20112;-60
2021/11/04 08:36:52;;;;;;;5.93;4.78;;;;;;;;;;5036762;28;20032;-60
2021/11/04 08:39:18;;;;;;;7.60;6.07;;;;;;;;;;5034681;28;20578;-60
2021/11/04 08:41:43;;;;;;;7.47;5.18;;;;;;;;;;5034854;28;20040;-60
2021/11/04 08:44:09;;;;;;;6.60;5.60;;;;;;;;;;5036525;28;20534;-60
2021/11/04 08:46:35;;;;;;;10.23;6.35;;;;;;;;;;5035258;28;20029;-59
2021/11/04 08:49:02;;;;;;;9.40;6.68;;;;;;;;;;5035118;28;20370;-60
2021/11/04 08:51:28;;;;;;;11.40;6.57;;;;;;;;;;5034144;28;20037;-60
2021/11/04 08:53:54;;;;;;;6.28;5.15;;;;;;;;;;5033932;28;20041;-60
2021/11/04 08:56:19;;;;;;;8.52;6.65;;;;;;;;;;5036545;28;20363;-60
2021/11/04 08:58:45;;;;;;;7.40;6.20;;;;;;;;;;5035248;28;20912;-60
2021/11/04 09:01:11;;;;;;;15.38;7.75;;;;;;;;;;5036800;28;20036;-60
2021/11/04 09:03:37;;;;;;;8.82;5.90;;;;;;;;;;5037807;28;20039;-59
2021/11/04 09:06:03;;;;;;;5.82;5.22;;;;;;;;;;5038364;28;20036;-60
2021/11/04 09:08:29;;;;;;;5.90;5.00;;;;;;;;;;5038078;28;20040;-60
2021/11/04 09:10:55;;;;;;;11.38;6.43;;;;;;;;;;5036608;28;20029;-61
2021/11/04 09:13:21;;;;;;;8.07;5.05;;;;;;;;;;5033275;28;20048;-60
2021/11/04 09:15:46;;;;;;;9.23;6.28;;;;;;;;;;5034529;28;20051;-62
2021/11/04 09:18:12;;;;;;;11.23;6.40;;;;;;;;;;5037016;28;20029;-61
2021/11/04 09:20:37;;;;;;;6.10;5.00;;;;;;;;;;5035487;28;20065;-61
2021/11/04 09:23:03;;;;;;;6.15;4.70;;;;;;;;;;5035022;28;20337;-61
2021/11/04 09:25:29;;;;;;;8.95;5.57;;;;;;;;;;5033782;28;20026;-61
2021/11/04 09:27:56;;;;;;;5.88;5.05;;;;;;;;;;5030431;28;20033;-61
2021/11/04 09:30:22;;;;;;;8.13;5.88;;;;;;;;;;5035747;28;20107;-62
2021/11/04 09:32:48;;;;;;;6.70;4.55;;;;;;;;;;5031755;28;20530;-61
2021/11/04 09:35:14;;;;;;;6.88;4.28;;;;;;;;;;5036996;28;20116;-62
2021/11/04 09:37:41;;;;;;;4.28;3.80;;;;;;;;;;5036083;28;20523;-62
2021/11/04 09:40:08;;;;;;;6.18;4.20;;;;;;;;;;5033828;28;20044;-62
2021/11/04 09:42:33;;;;;;;5.63;4.25;;;;;;;;;;5035937;28;20482;-62
2021/11/04 09:44:59;;;;;;;6.05;4.05;;;;;;;;;;5037611;28;20025;-61
2021/11/04 09:47:27;;;;;;;21.00;4.68;;;;;;;;;;5035571;28;20178;-61
2021/11/04 09:49:53;;;;;;;5.15;4.13;;;;;;;;;;5037829;28;20125;-62
2021/11/04 09:52:38;;;;;;;4.70;3.53;;;;;;;;;;5038113;28;20025;-62
2021/11/04 09:55:25;;;;;;;6.22;4.90;;;;;;;;;;5037729;28;20034;-62
2021/11/04 09:57:53;;;;;;;4.38;3.85;;;;;;;;;;5035599;28;20051;-62
2021/11/04 10:00:20;;;;;;;7.70;3.47;;;;;;;;;;5035506;28;20113;-62
2021/11/04 10:02:59;;;;;;;6.28;5.20;;;;;;;;;;5035312;28;20039;-60
2021/11/04 10:05:25;;;;;;;7.05;4.40;;;;;;;;;;5037211;28;20061;-61
2021/11/04 10:07:51;;;;;;;6.93;4.00;;;;;;;;;;5034000;28;20044;-60
2021/11/04 10:10:19;;;;;;;6.15;5.13;;;;;;;;;;5030293;28;20127;-61
2021/11/04 10:12:56;;;;;;;6.05;4.78;;;;;;;;;;5028737;28;20029;-61
2021/11/04 10:15:22;;;;;;;9.85;6.05;;;;;;;;;;5031942;28;20063;-62
2021/11/04 10:17:47;;;;;;;5.60;4.40;;;;;;;;;;5031771;28;20475;-61
2021/11/04 10:20:27;;;;;;;9.15;5.30;;;;;;;;;;5032719;28;20040;-62
2021/11/04 10:23:03;;;;;;;6.20;4.97;;;;;;;;;;5032102;28;20036;-61
2021/11/04 10:25:29;;;;;;;5.65;4.78;;;;;;;;;;5033357;28;20106;-62
2021/11/04 10:27:55;;;;;;;6.88;5.15;;;;;;;;;;5031592;28;20087;-62
2021/11/04 10:30:43;;;;;;;5.28;3.58;;;;;;;;;;5028117;28;20072;-62
2021/11/04 10:33:19;;;;;;;5.35;4.53;;;;;;;;;;5032965;28;20039;-62
2021/11/04 10:36:03;;;;;;;5.28;3.80;;;;;;;;;;5031561;28;20025;-62
2021/11/04 10:38:31;;;;;;;4.93;3.80;;;;;;;;;;5033143;28;20140;-61
2021/11/04 10:40:57;;;;;;;5.45;4.75;;;;;;;;;;5033669;28;20039;-61
2021/11/04 10:43:22;;;;;;;8.18;5.20;;;;;;;;;;5030798;28;20473;-62
2021/11/04 10:45:59;;;;;;;7.07;4.85;;;;;;;;;;5031965;28;20026;-62
2021/11/04 10:48:24;;;;;;;8.77;5.82;;;;;;;;;;5027769;28;20714;-62
2021/11/04 10:50:50;;;;;;;7.85;5.43;;;;;;;;;;5032489;28;20033;-63
2021/11/04 10:53:22;;;;;;;5.75;4.43;;;;;;;;;;5034288;28;20054;-62
2021/11/04 10:56:11;;;;;;;7.05;4.80;;;;;;;;;;5032766;28;20041;-62
2021/11/04 10:58:36;;;;;;;6.57;4.22;;;;;;;;;;5032368;28;20036;-63
2021/11/04 11:01:03;;;;;;;9.25;4.80;;;;;;;;;;5030190;28;20045;-63
2021/11/04 11:03:29;;;;;;;6.13;5.18;;;;;;;;;;5031320;28;20036;-63
2021/11/04 11:05:56;;;;;;;3.97;3.58;;;;;;;;;;5032165;28;20415;-63
2021/11/04 11:08:24;;;;;;;8.93;5.65;;;;;;;;;;5032722;28;20454;-63
2021/11/04 11:10:50;;;;;;;5.97;4.88;;;;;;;;;;5032063;28;20045;-63
2021/11/04 11:13:15;;;;;;;8.07;5.53;;;;;;;;;;5030066;28;20061;-62
2021/11/04 11:15:42;;;;;;;6.03;5.18;;;;;;;;;;5036197;28;20091;-62
2021/11/04 11:18:09;;;;;;;8.10;4.72;;;;;;;;;;5014774;28;20432;-61
2021/11/04 11:20:47;;;;;;;9.05;6.10;;;;;;;;;;5039269;28;20411;-61
2021/11/04 11:23:21;;;;;;;9.15;4.85;;;;;;;;;;5033938;28;20051;-61
2021/11/04 11:25:51;;;;;;;5.88;4.82;;;;;;;;;;5039287;28;20029;-62
2021/11/04 11:28:17;;;;;;;6.40;5.07;;;;;;;;;;5038780;28;20052;-62
2021/11/04 11:31:11;;;;;;;8.20;4.88;;;;;;;;;;5036301;28;20048;-63
2021/11/04 11:33:42;;;;;;;14.40;7.47;;;;;;;;;;5036074;28;20037;-62
2021/11/04 11:36:15;;;;;;;12.60;6.40;;;;;;;;;;5036197;28;20033;-62
2021/11/04 11:38:55;;;;;;;7.10;5.63;;;;;;;;;;5033171;28;20060;-62
2021/11/04 11:41:25;;;;;;;7.22;6.10;;;;;;;;;;5036102;28;20044;-62
2021/11/04 11:44:06;;;;;;;5.15;4.60;;;;;;;;;;5036884;28;20375;-62
2021/11/04 11:46:52;;;;;;;;;;;;;;;;;;5038273;28;20048;-62
2021/11/04 11:49:18;;;;;;;13.48;5.03;;;;;;;;;;5033014;28;19913;-61
2021/11/04 11:51:49;;;;;;;5.28;4.50;;;;;;;;;;5033260;28;20037;-62
2021/11/04 11:54:14;;;;;;;10.43;4.45;;;;;;;;;;5036984;28;20072;-62
2021/11/04 11:56:40;;;;;;;4.00;3.47;;;;;;;;;;5036164;28;20062;-62
2021/11/04 11:59:27;;;;;;;6.50;4.78;;;;;;;;;;5037496;28;20829;-61
2021/11/04 12:01:52;;;;;;;4.88;4.22;;;;;;;;;;5037523;28;20039;-62
2021/11/04 12:04:25;;;;;;;6.25;4.97;;;;;;;;;;5034627;28;20033;-61
2021/11/04 12:06:53;;;;;;;4.63;3.63;;;;;;;;;;5034994;28;20025;-62
2021/11/04 12:09:43;;;;;;;6.65;4.97;;;;;;;;;;5034457;28;20386;-62
2021/11/04 12:12:42;;;;;;;9.48;4.20;;;;;;;;;;5035307;28;20032;-61
2021/11/04 12:15:07;;;;;;;4.75;3.78;;;;;;;;;;5035259;28;20049;-63
2021/11/04 12:17:32;;;;;;;5.28;3.72;;;;;;;;;;5035110;28;20494;-62
2021/11/04 12:20:00;;;;;;;6.55;4.70;;;;;;;;;;5030840;28;20236;-62
2021/11/04 12:22:32;;;;;;;5.43;4.30;;;;;;;;;;5034851;28;20033;-61
2021/11/04 12:25:01;;;;;;;5.45;4.32;;;;;;;;;;5032048;28;20029;-61
2021/11/04 12:27:32;;;;;;;5.03;3.70;;;;;;;;;;5034658;28;20034;-61
2021/11/04 12:30:11;;;;;;;4.65;4.10;;;;;;;;;;5030837;28;20049;-61
2021/11/04 12:32:37;;;;;;;4.55;3.75;;;;;;;;;;5035088;28;20041;-61
2021/11/04 12:35:03;;;;;;;4.18;3.72;;;;;;;;;;5035265;28;20459;-61
2021/11/04 12:37:31;;;;;;;7.95;3.85;;;;;;;;;;5035341;28;20032;-61
2021/11/04 12:40:04;;;;;;;7.38;4.28;;;;;;;;;;5037102;28;20033;-62
2021/11/04 12:42:29;;;;;;;7.35;5.05;;;;;;;;;;5035246;28;20459;-61
2021/11/04 12:44:55;;;;;;;7.05;5.10;;;;;;;;;;5035148;28;20040;-61
2021/11/04 12:47:22;;;;;;;3.92;3.55;;;;;;;;;;5034632;28;20045;-61
2021/11/04 12:49:49;;;;;;;5.03;4.10;;;;;;;;;;5036791;28;20033;-61
2021/11/04 12:52:15;;;;;;;7.13;4.65;;;;;;;;;;5030501;28;20123;-61
2021/11/04 12:54:46;;;;;;;3.42;3.00;;;;;;;;;;5036545;28;20033;-60
2021/11/04 12:57:17;;;;;;;4.32;3.47;;;;;;;;;;5032160;28;20087;-61
2021/11/04 12:59:59;;;;;;;9.13;3.55;;;;;;;;;;5033687;28;20030;-61
2021/11/04 13:02:31;;;;;;;4.03;3.22;;;;;;;;;;5035637;28;20038;-60
2021/11/04 13:04:59;;;;;;;3.85;3.35;;;;;;;;;;5032267;28;20090;-60
2021/11/04 13:07:26;;;;;;;3.97;3.58;;;;;;;;;;5036409;28;20037;-60
2021/11/04 13:09:55;;;;;;;5.38;4.25;;;;;;;;;;5033869;28;20032;-60
2021/11/04 13:12:21;;;;;;;5.15;3.42;;;;;;;;;;5032571;28;20029;-60
2021/11/04 13:15:00;;;;;;;4.22;3.45;;;;;;;;;;5034816;28;20048;-60
2021/11/04 13:17:37;;;;;;;4.30;3.50;;;;;;;;;;5019991;28;20033;-60
2021/11/04 13:20:15;;;;;;;5.57;4.03;;;;;;;;;;5033209;28;21010;-60
2021/11/04 13:22:47;;;;;;;3.72;2.75;;;;;;;;;;5032310;28;20034;-60
2021/11/04 13:25:15;;;;;;;4.38;3.60;;;;;;;;;;5031516;28;20379;-60
2021/11/04 13:27:42;;;;;;;5.10;4.15;;;;;;;;;;5031771;28;20033;-60
2021/11/04 13:30:09;;;;;;;4.00;3.45;;;;;;;;;;5032690;28;20048;-60
2021/11/04 13:32:35;;;;;;;4.32;3.38;;;;;;;;;;5033763;28;20037;-60
2021/11/04 13:35:02;;;;;;;4.68;3.40;;;;;;;;;;5034426;28;20037;-61
2021/11/04 13:37:29;;;;;;;12.13;3.58;;;;;;;;;;5034147;28;20046;-60
2021/11/04 13:39:56;;;;;;;3.30;2.97;;;;;;;;;;5035663;28;20021;-60
2021/11/04 13:42:30;;;;;;;4.25;3.72;;;;;;;;;;5032570;28;20041;-60
2021/11/04 13:45:07;;;;;;;3.33;2.80;;;;;;;;;;5031243;28;20022;-60
2021/11/04 13:47:41;;;;;;;4.97;3.65;;;;;;;;;;5037628;28;20039;-60
2021/11/04 13:50:08;;;;;;;3.70;3.05;;;;;;;;;;5031832;28;20361;-60
2021/11/04 13:52:35;;;;;;;4.72;3.25;;;;;;;;;;5031156;28;20508;-60
2021/11/04 13:55:06;;;;;;;3.55;2.80;;;;;;;;;;5033150;28;20132;-60
2021/11/04 13:57:47;;;;;;;;;;;;;;;;;;5031564;28;20025;-60
2021/11/04 14:00:20;;;;;;;5.82;3.83;;;;;;;;;;5029853;28;19949;-61
2021/11/04 14:02:45;;;;;;;2.70;2.33;;;;;;;;;;5031349;28;20028;-60
2021/11/04 14:05:11;;;;;;;2.83;2.33;;;;;;;;;;5035511;28;20485;-60
2021/11/04 14:07:42;;;;;;;3.00;2.50;;;;;;;;;;5035016;28;20025;-59
2021/11/04 14:10:13;;;;;;;2.80;2.45;;;;;;;;;;5035748;28;20106;-60
2021/11/04 14:12:40;;;;;;;5.03;3.40;;;;;;;;;;5029235;28;20037;-60
2021/11/04 14:15:17;;;;;;;3.72;2.78;;;;;;;;;;5032615;28;20112;-59
2021/11/04 14:17:48;;;;;;;3.53;3.00;;;;;;;;;;5032973;28;20025;-60
2021/11/04 14:20:15;;;;;;;3.38;2.90;;;;;;;;;;5036172;28;20115;-60
2021/11/04 14:22:41;;;;;;;3.40;2.38;;;;;;;;;;5035876;28;20033;-59
2021/11/04 14:25:10;;;;;;;3.20;2.70;;;;;;;;;;5037837;28;20033;-59
2021/11/04 14:27:47;;;;;;;2.90;2.30;;;;;;;;;;5030615;28;20017;-60
2021/11/04 14:30:12;;;;;;;3.10;2.67;;;;;;;;;;5031615;28;20037;-59
2021/11/04 14:32:38;;;;;;;2.80;2.25;;;;;;;;;;5035160;28;20036;-60
2021/11/04 14:35:03;;;;;;;3.72;3.35;;;;;;;;;;5035837;28;20046;-58
2021/11/04 14:37:29;;;;;;;3.53;2.92;;;;;;;;;;5032504;28;20176;-59
2021/11/04 14:39:54;;;;;;;4.35;3.47;;;;;;;;;;5036184;28;20031;-59
2021/11/04 14:42:20;;;;;;;3.30;2.75;;;;;;;;;;5033007;28;20352;-59
2021/11/04 14:44:45;;;;;;;4.35;2.40;;;;;;;;;;5033391;28;20029;-59
2021/11/04 14:47:10;;;;;;;4.55;2.53;;;;;;;;;;5034932;28;20048;-59
2021/11/04 14:49:38;;;;;;;5.15;3.08;;;;;;;;;;5037358;28;20083;-60